Search for airport 
image banner adimage banner adimage banner ad
image banner ad

4CL9 - Arrowhead Rgnl Medical Center

Located in Colton, United States

ICAO - 4CL9, IATA -

Data provided by Airmate  

General information

Coordinates: N34°4'29" W117°20'58"
Elevation is 1076 feet MSL.
Magnetic variation is 14° East
View others Airports in California

Operational data

Special qualification required
Current time UTC:
Current local time:
Weather at : KSBD - San Bernardino Intl ( 11 km )
METAR: KSBD 270540Z AUTO 26005KT 10SM CLR 22/16 A3000 RMK AO2 T02230162
TAF: KSBD 270118Z 2701/2724 26011KT 4SM HZ SCT120 FM270400 VRB04KT 6SM HZ BKN200 FM271300 23002KT 3SM HZ BKN007 FM271600 24003KT 6SM HZ SCT250 FM272100 26013G20KT P6SM BKN250
View NOTAMs / SUP AIP / TFR affecting this airport [VIEW]
Communications frequencies: [VIEW]

Runways:

Airport contact information

Address: Colton United States

Satellite view of 4CL9